This is the latest recevied weather packets stored in our database for station/object KO5MO-4. If no packets are shown the sender has not sent any weather packets the latest 1 day(s).
| Time | Temp. | Humidity | Pressure | Rain* | Wind** | Luminosity | Snow |
|---|---|---|---|---|---|---|---|
| 1778086482 | 25° C | 26% | 1007.5 hPa | 0 mm | - | - | - |
| 1778082882 | 22.78° C | 31% | 1007.5 hPa | 0 mm | - | - | - |
| 1778082582 | 22.22° C | 31% | 1007.5 hPa | 0 mm | - | - | - |
| 1778081682 | 22.78° C | 31% | 1007.5 hPa | 0 mm | - | - | - |
| 1778079282 | 21.11° C | 33% | 1007.5 hPa | 0 mm | - | - | - |
| 1778077482 | 20.56° C | 35% | 1007.5 hPa | 0 mm | - | - | - |
| 1778077182 | 20.56° C | 35% | 1007.5 hPa | 0 mm | - | - | - |
| 1778076282 | 20° C | 36% | 1007.5 hPa | 0 mm | - | - | - |
| 1778075082 | 18.89° C | 39% | 1007.5 hPa | 0 mm | - | - | - |
| 1778074782 | 18.33° C | 39% | 1007.5 hPa | 0 mm | - | - | - |
| 1778074482 | 17.78° C | 41% | 1007.5 hPa | 0 mm | - | - | - |
| 1778074182 | 17.22° C | 43% | 1007.5 hPa | 0 mm | - | - | - |
| 1778073882 | 16.67° C | 44% | 1007.5 hPa | 0 mm | - | - | - |
| 1778073582 | 15.56° C | 46% | 1007.5 hPa | 0 mm | - | - | - |
| 1778072982 | 15° C | 48% | 1007.5 hPa | 0 mm | - | - | - |
| 1778072682 | 14.44° C | 50% | 1007.5 hPa | 0 mm | - | - | - |
| 1778072082 | 12.78° C | 55% | 1007.5 hPa | 0 mm | - | - | - |
| 1778071482 | 12.78° C | 55% | 1007.5 hPa | 0 mm | - | - | - |
| 1778071182 | 12.78° C | 55% | 1007.5 hPa | 0 mm | - | - | - |
| 1778069382 | 13.33° C | 51% | 1007.5 hPa | 0 mm | - | - | - |
| 1778069082 | 13.89° C | 50% | 1007.5 hPa | 0 mm | - | - | - |
| 1778068482 | 14.44° C | 49% | 1007.5 hPa | 0 mm | - | - | - |
| 1778068182 | 14.44° C | 49% | 1007.5 hPa | 0 mm | - | - | - |
| 1778067882 | 14.44° C | 49% | 1007.5 hPa | 0 mm | - | - | - |
| 1778067582 | 14.44° C | 49% | 1007.5 hPa | 0 mm | - | - | - |
* Rain latest hour (hover to see other rain measurements)
** Current wind speed in m/s (hover to see current wind gust speed)